createdAt,value
2019-02-06T00:01:10.283Z,4.85
2019-02-06T00:03:39.512Z,4.85
2019-02-06T00:06:08.741Z,4.85
2019-02-06T00:08:37.969Z,4.83
2019-02-06T00:11:07.238Z,4.81
2019-02-06T00:13:36.467Z,4.80
2019-02-06T00:16:05.711Z,4.79
2019-02-06T00:18:35.061Z,4.78
2019-02-06T00:21:04.331Z,4.79
2019-02-06T00:23:33.646Z,4.79
2019-02-06T00:26:02.890Z,4.77
2019-02-06T00:28:32.471Z,4.69
2019-02-06T00:31:01.710Z,4.69
2019-02-06T00:33:30.937Z,4.63
2019-02-06T00:36:00.170Z,4.62
2019-02-06T00:38:29.359Z,4.55
2019-02-06T00:40:58.604Z,4.52
2019-02-06T00:43:28.235Z,4.49
2019-02-06T00:45:57.431Z,4.47
2019-02-06T00:48:26.660Z,4.46
2019-02-06T00:50:55.892Z,4.33
2019-02-06T00:53:25.086Z,4.19
2019-02-06T00:55:54.326Z,4.06
2019-02-06T00:58:23.805Z,3.98
2019-02-06T01:00:53.111Z,3.94
2019-02-06T01:03:22.333Z,3.88
2019-02-06T01:05:51.564Z,3.78
2019-02-06T01:08:20.767Z,3.60
2019-02-06T01:10:49.967Z,3.45
2019-02-06T01:13:19.592Z,3.33
2019-02-06T01:15:48.790Z,3.18
2019-02-06T01:18:19.088Z,3.04
2019-02-06T01:20:48.299Z,2.93
2019-02-06T01:23:17.549Z,2.90
2019-02-06T01:25:46.749Z,2.80
2019-02-06T01:28:16.028Z,2.72
2019-02-06T01:30:46.916Z,2.62
2019-02-06T01:33:16.177Z,2.52
2019-02-06T01:35:49.950Z,2.42
2019-02-06T01:38:16.321Z,2.38
2019-02-06T01:40:45.515Z,2.31
2019-02-06T01:43:14.752Z,2.25
2019-02-06T01:45:43.971Z,2.18
2019-02-06T01:48:13.171Z,2.18
2019-02-06T01:50:42.403Z,2.20
2019-02-06T01:53:11.607Z,2.18
2019-02-06T01:55:40.808Z,2.19
2019-02-06T01:58:10.034Z,2.13
2019-02-06T02:00:39.447Z,2.07
2019-02-06T02:03:09.729Z,1.98
2019-02-06T02:05:39.144Z,2.03
2019-02-06T02:08:08.327Z,2.03
2019-02-06T02:10:37.603Z,2.12
2019-02-06T02:13:06.853Z,2.07
2019-02-06T02:15:36.464Z,1.94
2019-02-06T02:18:05.770Z,1.89
2019-02-06T02:20:34.998Z,1.79
2019-02-06T02:23:04.363Z,1.70
2019-02-06T02:25:33.673Z,1.59
2019-02-06T02:28:02.911Z,1.52
2019-02-06T02:30:34.033Z,1.46
2019-02-06T02:33:04.160Z,1.39
2019-02-06T02:35:33.354Z,1.31
2019-02-06T02:38:02.897Z,1.24
2019-02-06T02:40:32.130Z,1.18
2019-02-06T02:43:01.358Z,1.13
2019-02-06T02:45:30.831Z,1.03
2019-02-06T02:48:00.083Z,0.97
2019-02-06T02:50:29.305Z,0.89
2019-02-06T02:52:58.529Z,0.83
2019-02-06T02:55:27.806Z,0.77
2019-02-06T02:57:57.003Z,0.74
2019-02-06T03:00:44.560Z,0.69
2019-02-06T03:03:15.391Z,0.66
2019-02-06T03:05:44.637Z,0.63
2019-02-06T03:08:13.863Z,0.59
2019-02-06T03:10:43.475Z,0.57
2019-02-06T03:13:12.674Z,0.52
2019-02-06T03:15:42.097Z,0.52
2019-02-06T03:18:11.291Z,0.54
2019-02-06T03:20:40.518Z,0.56
2019-02-06T03:23:09.759Z,0.56
2019-02-06T03:25:38.996Z,0.59
2019-02-06T03:28:08.278Z,0.62
2019-02-06T03:30:37.546Z,0.61
2019-02-06T03:33:06.802Z,0.61
2019-02-06T03:35:36.052Z,0.62
2019-02-06T03:38:05.253Z,0.63
2019-02-06T03:40:34.715Z,0.60
2019-02-06T03:43:04.199Z,0.61
2019-02-06T03:45:33.442Z,0.61
2019-02-06T03:48:02.656Z,0.63
2019-02-06T03:50:31.891Z,0.64
2019-02-06T03:53:01.187Z,0.66
2019-02-06T03:55:30.400Z,0.69
2019-02-06T03:57:59.975Z,0.75
2019-02-06T04:00:29.205Z,0.88
2019-02-06T04:02:58.399Z,0.98
2019-02-06T04:05:27.770Z,1.06
2019-02-06T04:07:56.997Z,1.12
2019-02-06T04:10:26.197Z,1.19
2019-02-06T04:12:55.671Z,1.24
2019-02-06T04:15:24.921Z,1.29
2019-02-06T04:17:54.638Z,1.33
2019-02-06T04:20:23.933Z,1.35
2019-02-06T04:22:53.163Z,1.30
2019-02-06T04:25:22.498Z,1.30
2019-02-06T04:27:52.071Z,1.37
2019-02-06T04:30:21.307Z,1.36
2019-02-06T04:32:50.525Z,1.35
2019-02-06T04:35:19.766Z,1.34
2019-02-06T04:37:48.966Z,1.35
2019-02-06T04:40:20.290Z,1.34
2019-02-06T04:42:49.877Z,1.36
2019-02-06T04:45:19.659Z,1.36
2019-02-06T04:47:48.865Z,1.36
2019-02-06T04:50:18.273Z,1.35
2019-02-06T04:52:47.518Z,1.34
2019-02-06T04:55:17.863Z,1.35
2019-02-06T04:57:47.571Z,1.31
2019-02-06T05:00:19.570Z,1.30
2019-02-06T05:02:49.794Z,1.29
2019-02-06T05:05:19.157Z,1.28
2019-02-06T05:07:48.406Z,1.26
2019-02-06T05:10:17.779Z,1.24
2019-02-06T05:12:47.496Z,1.20
2019-02-06T05:15:17.065Z,1.24
2019-02-06T05:17:46.301Z,1.22
2019-02-06T05:20:30.271Z,1.19
2019-02-06T05:22:59.528Z,1.17
2019-02-06T05:25:29.112Z,1.17
2019-02-06T05:27:58.342Z,1.16
2019-02-06T05:30:27.545Z,1.17
2019-02-06T05:32:56.744Z,1.14
2019-02-06T05:35:26.050Z,1.10
2019-02-06T05:37:55.285Z,1.10
2019-02-06T05:40:24.818Z,1.08
2019-02-06T05:42:54.043Z,1.00
2019-02-06T05:45:23.254Z,0.91
2019-02-06T05:47:52.485Z,0.94
2019-02-06T05:50:21.682Z,0.90
2019-02-06T05:52:51.129Z,0.88
2019-02-06T05:55:20.489Z,0.83
2019-02-06T05:57:49.747Z,0.87
2019-02-06T06:00:28.096Z,0.83
2019-02-06T06:02:57.319Z,0.77
2019-02-06T06:05:26.530Z,0.72
2019-02-06T06:07:55.726Z,0.74
2019-02-06T06:10:25.333Z,0.75
2019-02-06T06:12:54.567Z,0.76
2019-02-06T06:15:23.812Z,0.77
2019-02-06T06:17:53.011Z,0.79
2019-02-06T06:20:22.259Z,0.78
2019-02-06T06:22:51.452Z,0.74
2019-02-06T06:25:21.745Z,0.74
2019-02-06T06:27:51.480Z,0.72
2019-02-06T06:30:21.047Z,0.66
2019-02-06T06:32:50.294Z,0.71
2019-02-06T06:35:19.486Z,0.69
2019-02-06T06:37:57.598Z,0.68
2019-02-06T06:40:21.484Z,0.72
2019-02-06T06:42:50.906Z,0.73
2019-02-06T06:45:24.581Z,0.71
2019-02-06T06:47:53.884Z,0.67
2019-02-06T06:50:25.083Z,0.64
2019-02-06T06:52:54.342Z,0.66
2019-02-06T06:55:23.924Z,0.66
2019-02-06T06:57:53.188Z,0.65
2019-02-06T07:00:26.968Z,0.68
2019-02-06T07:02:56.219Z,0.76
2019-02-06T07:05:25.402Z,0.86
2019-02-06T07:07:54.648Z,0.96
2019-02-06T07:10:24.298Z,1.10
2019-02-06T07:12:53.567Z,1.25
2019-02-06T07:15:28.430Z,1.41
2019-02-06T07:17:57.764Z,1.58
2019-02-06T07:20:26.985Z,1.73
2019-02-06T07:22:56.222Z,1.91
2019-02-06T07:25:25.419Z,2.03
2019-02-06T07:27:54.726Z,2.20
2019-02-06T07:30:32.401Z,2.35
2019-02-06T07:33:01.755Z,2.51
2019-02-06T07:35:30.995Z,2.67
2019-02-06T07:38:00.744Z,2.83
2019-02-06T07:40:29.924Z,3.14
2019-02-06T07:42:59.119Z,3.14
2019-02-06T07:45:28.432Z,3.27
2019-02-06T07:47:57.785Z,3.38
2019-02-06T07:50:31.559Z,3.46
2019-02-06T07:53:01.001Z,3.53
2019-02-06T07:55:30.329Z,3.56
2019-02-06T07:57:59.530Z,3.57
2019-02-06T08:00:28.759Z,3.54
2019-02-06T08:02:58.318Z,3.53
2019-02-06T08:05:27.671Z,3.53
2019-02-06T08:07:57.326Z,3.55
2019-02-06T08:10:28.798Z,3.58
2019-02-06T08:12:58.891Z,3.63
2019-02-06T08:15:28.124Z,3.72
2019-02-06T08:17:57.359Z,3.79
2019-02-06T08:20:26.597Z,3.90
2019-02-06T08:22:56.066Z,3.98
2019-02-06T08:25:25.571Z,4.09
2019-02-06T08:27:54.778Z,4.22
2019-02-06T08:30:30.158Z,4.33
2019-02-06T08:32:59.398Z,4.49
2019-02-06T08:35:28.697Z,4.70
2019-02-06T08:37:57.890Z,4.95
2019-02-06T08:40:29.725Z,5.16
2019-02-06T08:42:58.923Z,5.44
2019-02-06T08:45:31.368Z,5.76
2019-02-06T08:48:00.619Z,5.95
2019-02-06T08:50:30.174Z,6.28
2019-02-06T08:52:59.415Z,6.49
2019-02-06T08:55:32.759Z,6.70
2019-02-06T08:58:02.237Z,7.10
2019-02-06T09:00:34.263Z,7.29
2019-02-06T09:03:04.679Z,7.44
2019-02-06T09:05:33.884Z,7.52
2019-02-06T09:08:04.162Z,7.31
2019-02-06T09:10:33.414Z,7.01
2019-02-06T09:13:02.646Z,7.01
2019-02-06T09:15:31.895Z,7.13
2019-02-06T09:18:01.107Z,7.21
2019-02-06T09:20:30.719Z,7.24
2019-02-06T09:22:59.924Z,7.29
2019-02-06T09:25:29.687Z,7.45
2019-02-06T09:27:59.026Z,7.56
2019-02-06T09:30:33.986Z,7.55
2019-02-06T09:33:04.933Z,7.45
2019-02-06T09:35:34.195Z,7.52
2019-02-06T09:38:04.180Z,7.58
2019-02-06T09:40:33.418Z,7.49
2019-02-06T09:43:02.629Z,7.67
2019-02-06T09:45:31.875Z,7.72
2019-02-06T09:48:01.074Z,7.79
2019-02-06T09:50:35.105Z,7.67
2019-02-06T09:53:05.693Z,7.65
2019-02-06T09:55:34.937Z,7.88
2019-02-06T09:58:04.420Z,7.95
2019-02-06T10:00:36.368Z,7.98
2019-02-06T10:03:06.249Z,7.88
2019-02-06T10:05:35.449Z,7.83
2019-02-06T10:08:04.831Z,7.96
2019-02-06T10:10:34.099Z,8.09
2019-02-06T10:13:04.101Z,8.17
2019-02-06T10:15:38.082Z,8.23
2019-02-06T10:18:07.520Z,8.35
2019-02-06T10:20:39.305Z,8.46
2019-02-06T10:23:08.631Z,8.60
2019-02-06T10:25:37.875Z,8.64
2019-02-06T10:28:07.082Z,8.67
2019-02-06T10:30:44.831Z,8.71
2019-02-06T10:33:14.037Z,8.57
2019-02-06T10:35:43.274Z,8.68
2019-02-06T10:38:12.599Z,8.78
2019-02-06T10:40:41.808Z,8.84
2019-02-06T10:43:11.052Z,8.99
2019-02-06T10:45:40.590Z,8.95
2019-02-06T10:48:09.793Z,8.89
2019-02-06T10:50:42.070Z,8.96
2019-02-06T10:53:11.275Z,8.95
2019-02-06T10:55:40.508Z,8.96
2019-02-06T10:58:09.711Z,9.02
2019-02-06T11:00:49.409Z,9.02
2019-02-06T11:03:18.612Z,9.09
2019-02-06T11:05:47.854Z,9.15
2019-02-06T11:08:17.093Z,9.10
2019-02-06T11:10:46.357Z,9.06
2019-02-06T11:13:15.882Z,9.13
2019-02-06T11:15:45.126Z,9.17
2019-02-06T11:18:14.452Z,9.05
2019-02-06T11:20:43.826Z,9.10
2019-02-06T11:23:13.813Z,9.16
2019-02-06T11:25:43.000Z,9.10
2019-02-06T11:28:12.630Z,9.17
2019-02-06T11:30:41.835Z,9.12
2019-02-06T11:33:12.254Z,9.07
2019-02-06T11:35:41.488Z,9.06
2019-02-06T11:38:10.691Z,8.97
2019-02-06T11:40:40.052Z,9.05
2019-02-06T11:43:09.532Z,9.05
2019-02-06T11:45:38.814Z,8.96
2019-02-06T11:48:08.023Z,8.69
2019-02-06T11:50:44.136Z,8.65
2019-02-06T11:53:15.670Z,8.71
2019-02-06T11:55:45.087Z,8.55
2019-02-06T11:58:14.297Z,8.55
2019-02-06T12:00:48.339Z,8.57
2019-02-06T12:03:16.387Z,8.65
2019-02-06T12:05:45.653Z,8.79
2019-02-06T12:08:14.868Z,8.77
2019-02-06T12:10:44.233Z,8.90
2019-02-06T12:13:14.501Z,8.93
2019-02-06T12:15:43.736Z,8.85
2019-02-06T12:18:12.976Z,8.88
2019-02-06T12:20:42.194Z,9.15
2019-02-06T12:23:11.434Z,9.12
2019-02-06T12:25:40.630Z,9.02
2019-02-06T12:28:09.913Z,8.77
2019-02-06T12:30:42.184Z,9.09
2019-02-06T12:33:11.382Z,9.41
2019-02-06T12:35:40.623Z,9.23
2019-02-06T12:38:09.829Z,9.40
2019-02-06T12:40:40.046Z,9.31
2019-02-06T12:43:10.514Z,9.30
2019-02-06T12:45:40.009Z,9.37
2019-02-06T12:48:09.173Z,9.34
2019-02-06T12:50:38.547Z,9.31
2019-02-06T12:53:07.967Z,9.12
2019-02-06T12:55:39.260Z,9.11
2019-02-06T12:58:09.110Z,9.34
2019-02-06T13:00:43.073Z,9.30
2019-02-06T13:03:13.294Z,9.38
2019-02-06T13:05:42.539Z,9.20
2019-02-06T13:08:11.742Z,9.31
2019-02-06T13:10:41.024Z,9.49
2019-02-06T13:13:10.275Z,9.52
2019-02-06T13:15:39.761Z,9.47
2019-02-06T13:18:09.006Z,9.57
2019-02-06T13:20:38.280Z,9.53
2019-02-06T13:23:07.485Z,9.52
2019-02-06T13:25:36.695Z,9.37
2019-02-06T13:28:05.952Z,9.44
2019-02-06T13:30:37.013Z,9.52
2019-02-06T13:33:07.571Z,9.52
2019-02-06T13:35:37.647Z,9.60
2019-02-06T13:38:06.855Z,9.56
2019-02-06T13:40:45.041Z,9.41
2019-02-06T13:43:07.043Z,9.44
2019-02-06T13:45:42.782Z,9.34
2019-02-06T13:48:12.083Z,9.21
2019-02-06T13:50:41.281Z,9.28
2019-02-06T13:53:10.716Z,9.13
2019-02-06T13:55:40.035Z,9.21
2019-02-06T13:58:19.792Z,9.34
2019-02-06T14:00:41.782Z,9.48
2019-02-06T14:03:11.033Z,9.41
2019-02-06T14:05:40.238Z,9.22
2019-02-06T14:08:11.720Z,9.30
2019-02-06T14:10:41.006Z,9.25
2019-02-06T14:13:10.480Z,9.03
2019-02-06T14:15:41.788Z,9.00
2019-02-06T14:18:11.359Z,9.14
2019-02-06T14:20:41.148Z,9.20
2019-02-06T14:23:15.972Z,8.91
2019-02-06T14:26:14.062Z,8.74
2019-02-06T14:29:03.498Z,8.64
2019-02-06T14:31:41.284Z,8.54
2019-02-06T14:34:30.300Z,8.52
2019-02-06T14:37:11.580Z,8.61
2019-02-06T14:39:53.384Z,8.61
2019-02-06T14:42:41.012Z,8.58
2019-02-06T14:45:47.077Z,8.62
2019-02-06T14:48:25.291Z,8.64
2019-02-06T14:51:06.854Z,8.65
2019-02-06T14:53:51.288Z,8.67
2019-02-06T14:56:41.739Z,8.72
2019-02-06T14:59:26.059Z,8.76
2019-02-06T15:02:22.734Z,8.71
2019-02-06T15:04:58.119Z,8.71
2019-02-06T15:07:30.617Z,8.72
2019-02-06T15:10:33.475Z,8.72
2019-02-06T15:13:12.327Z,8.73
2019-02-06T15:16:02.968Z,8.74
2019-02-06T15:18:56.259Z,8.72
2019-02-06T15:21:40.826Z,8.72
2019-02-06T15:24:16.529Z,8.71
2019-02-06T15:26:51.771Z,8.64
2019-02-06T15:29:36.427Z,8.66
2019-02-06T15:32:24.206Z,8.66
2019-02-06T15:34:56.681Z,8.58
2019-02-06T15:37:37.986Z,8.60
2019-02-06T15:40:25.786Z,8.50
2019-02-06T15:43:22.363Z,8.51
2019-02-06T15:46:15.979Z,8.39
2019-02-06T15:49:17.461Z,8.43
2019-02-06T15:51:55.842Z,8.33
2019-02-06T15:54:49.800Z,8.27
2019-02-06T15:57:52.108Z,8.24
2019-02-06T16:00:39.568Z,8.19
2019-02-06T16:03:26.201Z,8.12
2019-02-06T16:06:03.057Z,8.07
2019-02-06T16:08:35.512Z,8.02
2019-02-06T16:11:26.355Z,7.97
2019-02-06T16:14:14.017Z,7.93
2019-02-06T16:17:04.479Z,7.88
2019-02-06T16:19:42.952Z,7.80
2019-02-06T16:22:32.134Z,7.74
2019-02-06T16:25:04.645Z,7.68
2019-02-06T16:27:40.123Z,7.61
2019-02-06T16:30:12.614Z,7.53
2019-02-06T16:32:57.194Z,7.45
2019-02-06T16:35:51.524Z,7.38
2019-02-06T16:38:33.425Z,7.22
2019-02-06T16:41:08.715Z,7.13
2019-02-06T16:43:44.602Z,7.13
2019-02-06T16:46:35.021Z,7.14
2019-02-06T16:49:19.783Z,7.17
2019-02-06T16:52:01.175Z,7.19
2019-02-06T16:54:52.738Z,7.17
2019-02-06T16:57:34.484Z,7.16
2019-02-06T17:00:13.062Z,7.11
2019-02-06T17:02:45.751Z,7.10
2019-02-06T17:05:37.604Z,7.09
2019-02-06T17:08:13.564Z,7.13
2019-02-06T17:10:46.054Z,7.10
2019-02-06T17:13:37.821Z,7.07
2019-02-06T17:16:22.523Z,7.15
2019-02-06T17:19:07.048Z,7.09
2019-02-06T17:21:57.884Z,7.09
2019-02-06T17:24:48.547Z,7.09
2019-02-06T17:27:32.555Z,7.10
2019-02-06T17:30:19.342Z,7.05
2019-02-06T17:33:09.870Z,6.97
2019-02-06T17:36:00.387Z,6.93
2019-02-06T17:38:44.916Z,6.91
2019-02-06T17:41:19.979Z,6.93
2019-02-06T17:44:09.123Z,6.87
2019-02-06T17:46:57.746Z,6.85
2019-02-06T17:49:30.244Z,6.84
2019-02-06T17:52:20.874Z,6.81
2019-02-06T17:54:56.162Z,6.81
2019-02-06T17:57:25.389Z,6.83
2019-02-06T17:59:54.636Z,6.89
2019-02-06T18:02:24.259Z,6.95
2019-02-06T18:04:53.511Z,6.97
2019-02-06T18:07:22.743Z,6.97
2019-02-06T18:09:51.970Z,6.93
2019-02-06T18:12:26.346Z,6.87
2019-02-06T18:14:52.137Z,6.84
2019-02-06T18:17:21.383Z,6.79
2019-02-06T18:19:50.585Z,6.76
2019-02-06T18:22:22.441Z,6.80
2019-02-06T18:24:50.754Z,6.82
2019-02-06T18:27:20.009Z,6.87
2019-02-06T18:29:49.203Z,6.98
2019-02-06T18:32:18.821Z,7.09
2019-02-06T18:34:48.084Z,7.13
2019-02-06T18:37:17.423Z,7.15
2019-02-06T18:39:46.701Z,7.20
2019-02-06T18:42:15.932Z,7.24
2019-02-06T18:44:45.133Z,7.29
2019-02-06T18:47:14.389Z,7.33
2019-02-06T18:49:43.921Z,7.38
2019-02-06T18:52:20.227Z,7.41
2019-02-06T18:54:44.060Z,7.43
2019-02-06T18:57:13.623Z,7.44
2019-02-06T18:59:42.929Z,7.44
2019-02-06T19:02:12.210Z,7.43
2019-02-06T19:04:41.494Z,7.42
2019-02-06T19:07:10.753Z,7.42
2019-02-06T19:09:40.255Z,7.46
2019-02-06T19:12:09.510Z,7.46
2019-02-06T19:14:38.708Z,7.52
2019-02-06T19:17:08.039Z,7.54
2019-02-06T19:19:37.250Z,7.56
2019-02-06T19:22:06.516Z,7.58
2019-02-06T19:24:35.779Z,7.59
2019-02-06T19:27:06.883Z,7.61
2019-02-06T19:29:36.083Z,7.63
2019-02-06T19:32:05.371Z,7.66
2019-02-06T19:34:34.571Z,7.68
2019-02-06T19:37:04.156Z,7.68
2019-02-06T19:39:33.751Z,7.63
2019-02-06T19:42:03.059Z,7.57
2019-02-06T19:44:32.533Z,7.52
2019-02-06T19:47:03.157Z,7.48
2019-02-06T19:49:32.363Z,7.47
2019-02-06T19:52:01.722Z,7.51
2019-02-06T19:54:32.066Z,7.56
2019-02-06T19:57:01.489Z,7.59
2019-02-06T19:59:31.078Z,7.60
2019-02-06T20:02:00.436Z,7.63
2019-02-06T20:04:29.740Z,7.62
2019-02-06T20:06:59.177Z,7.61
2019-02-06T20:09:30.328Z,7.59
2019-02-06T20:11:59.475Z,7.55
2019-02-06T20:14:28.725Z,7.48
2019-02-06T20:16:57.998Z,7.38
2019-02-06T20:19:27.391Z,7.31
2019-02-06T20:21:57.879Z,7.27
2019-02-06T20:24:27.224Z,7.26
2019-02-06T20:26:56.678Z,7.25
2019-02-06T20:29:27.915Z,7.21
2019-02-06T20:31:57.678Z,7.19
2019-02-06T20:34:27.240Z,7.23
2019-02-06T20:36:56.536Z,7.28
2019-02-06T20:39:26.247Z,7.28
2019-02-06T20:41:55.564Z,7.26
2019-02-06T20:44:24.982Z,7.23
2019-02-06T20:46:55.888Z,7.19
2019-02-06T20:49:25.198Z,7.14
2019-02-06T20:51:55.568Z,7.14
2019-02-06T20:54:24.945Z,7.13
2019-02-06T20:56:54.184Z,7.13
2019-02-06T20:59:23.470Z,7.12
2019-02-06T21:28:27.504Z,25.06
2019-02-06T21:31:04.525Z,21.77
2019-02-06T21:33:43.574Z,18.17
2019-02-06T21:36:14.246Z,15.42
2019-02-06T21:38:43.599Z,13.43
2019-02-06T21:44:03.076Z,10.85
2019-02-06T21:46:35.835Z,10.04
2019-02-06T21:49:05.080Z,9.43
2019-02-06T21:51:38.678Z,8.96
2019-02-06T21:54:08.224Z,8.52
2019-02-06T21:56:39.058Z,8.12
2019-02-06T21:59:13.137Z,7.82
2019-02-06T22:01:42.487Z,7.58
2019-02-06T22:04:12.904Z,7.39
2019-02-06T22:06:42.332Z,7.22
2019-02-06T22:09:13.209Z,7.07
2019-02-06T22:11:42.456Z,6.96
2019-02-06T22:14:12.073Z,6.87
2019-02-06T22:16:41.309Z,6.79
2019-02-06T22:19:10.521Z,6.72
2019-02-06T22:21:39.798Z,6.66
2019-02-06T22:24:09.098Z,6.62
2019-02-06T22:26:38.400Z,6.60
2019-02-06T22:29:07.689Z,6.59
2019-02-06T22:31:36.867Z,6.51
2019-02-06T22:34:06.133Z,6.46
2019-02-06T22:36:35.664Z,6.41
2019-02-06T22:39:08.189Z,6.36
2019-02-06T22:41:37.386Z,6.32
2019-02-06T22:44:07.025Z,6.29
2019-02-06T22:46:36.221Z,6.26
2019-02-06T22:49:05.474Z,6.23
2019-02-06T22:51:36.388Z,6.19
2019-02-06T22:54:05.655Z,6.14
2019-02-06T22:56:34.912Z,6.10
2019-02-06T22:59:04.156Z,6.08
2019-02-06T23:01:33.490Z,6.10
2019-02-06T23:04:03.221Z,6.13
2019-02-06T23:06:32.420Z,6.17
2019-02-06T23:09:01.721Z,6.21
2019-02-06T23:11:32.831Z,6.26
2019-02-06T23:14:02.166Z,6.27
2019-02-06T23:16:31.431Z,6.27
2019-02-06T23:19:01.970Z,6.28
2019-02-06T23:21:31.565Z,6.28
2019-02-06T23:24:00.776Z,6.29
2019-02-06T23:26:29.974Z,6.35
2019-02-06T23:28:59.232Z,6.38
2019-02-06T23:31:28.502Z,6.38
2019-02-06T23:33:58.066Z,6.38
2019-02-06T23:36:27.360Z,6.42
2019-02-06T23:38:56.555Z,6.45
2019-02-06T23:41:25.857Z,6.50
2019-02-06T23:43:55.166Z,6.53
2019-02-06T23:46:24.677Z,6.55
2019-02-06T23:48:54.067Z,6.56
2019-02-06T23:51:23.283Z,6.58
2019-02-06T23:53:52.611Z,6.59
2019-02-06T23:56:21.812Z,6.61
2019-02-06T23:58:51.067Z,6.61
